Time;durP1;ratioP1;P1;durP2;ratioP2;P2;SDS_P1;SDS_P2;PMS_P1;PMS_P2;Temp;Humidity;BMP_temperature;BMP_pressure;BME280_temperature;BME280_humidity;BME280_pressure;Samples;Min_cycle;Max_cycle;Signal;HPM_P1;HPM_P2
2023/06/28 00:00:52;;;;;;;2.60;1.30;;;;;;;20.92;43.21;99021.19;5136565;27;42854;-78
2023/06/28 00:03:19;;;;;;;2.37;1.50;;;;;;;20.88;43.18;99019.81;5154677;27;42522;-78
2023/06/28 00:05:47;;;;;;;1.40;1.30;;;;;;;20.85;43.00;99019.28;5119383;27;41024;-78
2023/06/28 00:08:15;;;;;;;2.60;1.40;;;;;;;20.80;43.14;99019.75;5154757;27;41726;-78
2023/06/28 00:10:42;;;;;;;1.70;1.27;;;;;;;20.66;42.82;99006.84;5136688;27;42838;-79
2023/06/28 00:13:10;;;;;;;2.27;1.50;;;;;;;20.75;43.12;99022.06;5119163;27;41177;-78
2023/06/28 00:15:39;;;;;;;1.30;1.20;;;;;;;20.72;42.95;99022.38;5118774;27;38965;-78
2023/06/28 00:18:07;;;;;;;1.80;1.37;;;;;;;20.71;42.83;99023.38;5135482;27;41601;-79
2023/06/28 00:20:35;;;;;;;1.97;1.27;;;;;;;20.70;43.05;99032.44;5117942;27;42790;-78
2023/06/28 00:23:03;;;;;;;1.53;1.30;;;;;;;20.69;42.65;99030.75;5118068;27;41268;-78
2023/06/28 00:25:30;;;;;;;1.33;1.20;;;;;;;20.69;43.07;99028.91;5135699;27;40017;-78
2023/06/28 00:27:58;;;;;;;2.77;1.37;;;;;;;20.69;43.08;99028.06;5135427;27;40638;-78
2023/06/28 00:30:25;;;;;;;1.40;1.10;;;;;;;20.68;42.92;99031.75;5118905;27;41767;-78
2023/06/28 00:32:54;;;;;;;1.60;1.30;;;;;;;20.65;43.28;99021.28;5136059;27;40999;-78
2023/06/28 00:35:22;;;;;;;2.17;1.17;;;;;;;20.61;43.15;99018.09;5118986;27;40437;-78
2023/06/28 00:37:49;;;;;;;1.60;1.30;;;;;;;20.52;43.07;99020.88;5135900;27;41910;-77
2023/06/28 00:40:17;;;;;;;1.90;1.23;;;;;;;20.41;43.46;99016.53;5119027;27;42722;-78
2023/06/28 00:42:44;;;;;;;2.33;1.50;;;;;;;20.29;43.79;99007.84;5118572;27;41259;-78
2023/06/28 00:45:14;;;;;;;2.97;1.17;;;;;;;20.15;44.30;99013.78;5136370;27;39741;-78
2023/06/28 00:47:43;;;;;;;1.43;1.33;;;;;;;19.96;44.07;99003.13;5135761;27;40374;-78
2023/06/28 00:50:13;;;;;;;2.93;1.57;;;;;;;19.95;44.27;99018.41;5135908;27;42966;-78
2023/06/28 00:52:41;;;;;;;1.60;1.23;;;;;;;19.85;44.44;99022.16;5118228;27;41239;-78
2023/06/28 00:55:09;;;;;;;2.60;2.00;;;;;;;19.75;45.16;99016.84;5135529;27;40974;-78
2023/06/28 00:57:37;;;;;;;2.07;1.53;;;;;;;19.64;44.81;99019.75;5116857;27;40595;-78
2023/06/28 01:00:11;;;;;;;2.90;1.40;;;;;;;19.45;45.18;99007.19;5117757;27;41655;-78
2023/06/28 01:02:41;;;;;;;1.40;1.30;;;;;;;19.37;45.30;99007.09;5134434;27;42404;-78
2023/06/28 01:05:14;;;;;;;3.07;1.40;;;;;;;19.36;45.79;99010.78;5117940;27;40067;-78
2023/06/28 01:07:44;;;;;;;3.20;1.60;;;;;;;19.36;45.92;99026.91;5117422;27;40940;-78
2023/06/28 01:10:13;;;;;;;3.20;1.50;;;;;;;19.29;46.09;99017.72;5117620;27;42828;-78
2023/06/28 01:12:41;;;;;;;1.83;1.40;;;;;;;19.17;46.22;99019.72;5134439;27;43205;-78
2023/06/28 01:15:10;;;;;;;3.00;2.03;;;;;;;19.18;46.52;99020.59;5117771;27;38720;-78
2023/06/28 01:17:38;;;;;;;2.13;1.30;;;;;;;19.12;46.20;99021.19;5134257;27;41507;-78
2023/06/28 01:20:07;;;;;;;3.63;1.77;;;;;;;19.01;46.50;99023.06;5134665;27;43517;-78
2023/06/28 01:22:40;;;;;;;2.30;1.40;;;;;;;18.92;46.94;99007.78;5134342;27;42217;-78
2023/06/28 01:25:10;;;;;;;2.37;1.30;;;;;;;18.95;47.00;99012.88;5117462;27;39301;-78
2023/06/28 01:27:44;;;;;;;1.80;1.37;;;;;;;18.99;46.97;99030.41;5134719;27;41799;-78
2023/06/28 01:30:15;;;;;;;2.60;1.57;;;;;;;18.96;47.78;99022.63;5131334;27;43343;-79
2023/06/28 01:32:43;;;;;;;1.90;1.60;;;;;;;18.91;48.60;99022.22;5134324;27;42431;-78
2023/06/28 01:35:14;;;;;;;1.90;1.40;;;;;;;18.89;48.37;99034.94;5134700;27;39966;-79
2023/06/28 01:37:42;;;;;;;2.47;1.70;;;;;;;18.75;48.29;99019.28;5133101;27;41799;-78
2023/06/28 01:40:15;;;;;;;1.33;1.23;;;;;;;18.77;48.33;99030.72;5117362;27;41591;-78
2023/06/28 01:42:43;;;;;;;1.57;1.40;;;;;;;18.38;48.50;98973.53;5134806;27;43472;-77
2023/06/28 01:45:11;;;;;;;2.10;1.67;;;;;;;18.63;48.60;99017.75;5135327;27;41751;-78
2023/06/28 01:47:39;;;;;;;2.00;1.50;;;;;;;18.33;48.90;98983.84;5117688;27;40789;-78
2023/06/28 01:50:08;;;;;;;2.63;1.77;;;;;;;18.49;48.69;99015.47;5135069;27;42849;-78
2023/06/28 01:52:36;;;;;;;2.10;1.50;;;;;;;18.45;48.94;99016.72;5117542;27;41146;-78
2023/06/28 01:55:05;;;;;;;2.63;1.77;;;;;;;18.27;48.69;99004.03;5118114;27;38554;-78
2023/06/28 01:57:35;;;;;;;2.10;1.70;;;;;;;18.18;48.78;99001.31;5117558;27;40794;-78
2023/06/28 02:00:08;;;;;;;3.43;1.73;;;;;;;18.11;48.85;98995.69;5118016;27;41924;-78
2023/06/28 02:02:44;;;;;;;1.50;1.40;;;;;;;18.11;50.94;98984.97;5134910;27;41258;-78
2023/06/28 02:05:12;;;;;;;3.67;1.67;;;;;;;18.14;51.17;99000.78;5117570;27;39460;-77
2023/06/28 02:07:42;;;;;;;3.53;2.03;;;;;;;18.10;51.30;99001.19;5115171;27;40624;-77
2023/06/28 02:10:10;;;;;;;2.77;1.43;;;;;;;17.96;51.02;98986.38;5134282;27;42793;-78
2023/06/28 02:12:40;;;;;;;2.50;1.47;;;;;;;18.03;51.02;99005.44;5133225;27;43180;-78
2023/06/28 02:15:08;;;;;;;2.27;1.70;;;;;;;17.98;50.49;99011.19;5152635;27;40652;-78
2023/06/28 02:17:36;;;;;;;2.27;1.63;;;;;;;17.91;50.94;99015.44;5116412;27;41059;-78
2023/06/28 02:20:08;;;;;;;2.27;1.57;;;;;;;17.84;50.64;99008.91;5116558;27;41848;-78
2023/06/28 02:22:36;;;;;;;1.87;1.40;;;;;;;17.68;50.97;98997.91;5116808;27;41550;-78
2023/06/28 02:25:04;;;;;;;1.40;1.30;;;;;;;17.71;50.77;99009.16;5116689;27;40358;-78
2023/06/28 02:27:32;;;;;;;3.33;1.90;;;;;;;17.66;50.94;99019.47;5116423;27;40876;-78
2023/06/28 02:30:01;;;;;;;1.60;1.40;;;;;;;17.60;51.07;99018.13;5116284;27;41905;-78
2023/06/28 02:32:30;;;;;;;2.07;1.80;;;;;;;17.41;51.17;98993.97;5132983;27;42599;-78
2023/06/28 02:34:58;;;;;;;2.30;1.57;;;;;;;17.49;52.07;99012.88;5116522;27;39727;-78
2023/06/28 02:37:26;;;;;;;2.03;1.77;;;;;;;17.45;51.96;99022.16;5116535;27;41023;-78
2023/06/28 02:39:53;;;;;;;3.47;1.87;;;;;;;17.24;51.86;98978.53;5119688;27;41661;-78
2023/06/28 02:42:21;;;;;;;2.77;2.13;;;;;;;17.42;52.02;99022.44;5136931;27;43527;-78
2023/06/28 02:44:50;;;;;;;1.53;1.43;;;;;;;17.43;52.00;99021.44;5137605;27;40883;-78
2023/06/28 02:47:20;;;;;;;2.53;1.67;;;;;;;17.41;52.65;99012.72;5120265;27;41689;-77
2023/06/28 02:49:47;;;;;;;2.40;1.80;;;;;;;17.51;52.15;99024.31;5120567;27;41706;-78
2023/06/28 02:52:15;;;;;;;1.70;1.60;;;;;;;17.53;52.06;99027.69;5137749;27;43603;-78
2023/06/28 02:54:43;;;;;;;1.70;1.60;;;;;;;17.62;51.76;99030.53;5138187;27;40154;-77
2023/06/28 02:57:11;;;;;;;2.20;1.60;;;;;;;17.66;51.80;99037.34;5137559;27;41731;-77
2023/06/28 02:59:53;;;;;;;2.50;1.87;;;;;;;17.42;51.30;98987.63;5120740;27;41850;-77
2023/06/28 03:02:23;;;;;;;2.73;1.60;;;;;;;17.71;51.58;99035.09;5119972;27;42257;-76
2023/06/28 03:04:52;;;;;;;3.50;1.93;;;;;;;17.69;51.89;99026.34;5134771;27;40017;-77
2023/06/28 03:07:20;;;;;;;1.67;1.30;;;;;;;17.74;51.96;99034.84;5120254;27;41620;-77
2023/06/28 03:09:49;;;;;;;2.13;1.63;;;;;;;17.68;52.10;99022.81;5137566;27;42649;-77
2023/06/28 03:12:17;;;;;;;2.70;2.10;;;;;;;17.76;52.30;99035.56;5136867;27;42511;-78
2023/06/28 03:14:44;;;;;;;2.40;1.70;;;;;;;17.66;52.68;99005.22;5118459;27;38916;-78
2023/06/28 03:17:12;;;;;;;2.13;1.80;;;;;;;17.84;52.72;99019.63;5136410;27;41672;-78
2023/06/28 03:19:42;;;;;;;2.23;1.70;;;;;;;17.90;52.73;99027.13;5119337;27;43159;-77
2023/06/28 03:22:10;;;;;;;2.53;1.73;;;;;;;17.94;52.44;99026.69;5118453;27;43549;-78
2023/06/28 03:24:38;;;;;;;3.97;1.60;;;;;;;17.88;52.83;99015.69;5137797;27;40718;-77
2023/06/28 03:27:07;;;;;;;2.07;1.73;;;;;;;18.04;52.58;99024.06;5137486;27;41682;-78
2023/06/28 03:29:35;;;;;;;2.87;1.60;;;;;;;18.10;52.46;99030.69;5119779;27;41795;-77
2023/06/28 03:32:03;;;;;;;2.00;1.60;;;;;;;18.14;52.68;99030.28;5155439;27;42237;-77
2023/06/28 03:34:31;;;;;;;1.73;1.63;;;;;;;18.10;53.38;99009.22;5119920;27;39212;-77
2023/06/28 03:37:01;;;;;;;2.33;1.60;;;;;;;18.21;53.13;99023.34;5136688;27;41740;-77
2023/06/28 03:39:29;;;;;;;2.30;1.70;;;;;;;18.23;53.47;99020.53;5119667;27;41997;-76
2023/06/28 03:41:56;;;;;;;2.33;1.80;;;;;;;18.17;53.55;99005.88;5137106;27;42254;-77
2023/06/28 03:44:24;;;;;;;1.60;1.50;;;;;;;18.29;53.54;99020.00;5119816;27;38836;-77
2023/06/28 03:46:51;;;;;;;2.60;1.77;;;;;;;18.32;53.75;99014.31;5136400;27;40832;-78
2023/06/28 03:49:21;;;;;;;2.03;1.50;;;;;;;18.36;53.67;99020.25;5135846;27;43704;-77
2023/06/28 03:51:48;;;;;;;3.00;1.70;;;;;;;18.35;53.73;99014.03;5118317;27;43978;-78
2023/06/28 03:54:17;;;;;;;3.07;1.77;;;;;;;18.44;53.95;99023.06;5117931;27;39041;-78
2023/06/28 03:56:45;;;;;;;2.13;1.90;;;;;;;18.48;53.60;99022.66;5118351;27;40706;-78
2023/06/28 03:59:13;;;;;;;4.97;2.33;;;;;;;18.53;53.86;99022.25;5118882;27;41601;-78
2023/06/28 04:01:40;;;;;;;2.93;2.00;;;;;;;18.58;53.54;99020.00;5118456;27;41431;-75
2023/06/28 04:04:08;;;;;;;2.20;1.70;;;;;;;18.61;54.15;99025.09;5118121;27;39182;-74
2023/06/28 04:06:35;;;;;;;2.10;1.90;;;;;;;18.62;54.12;99026.78;5135132;27;41218;-76
2023/06/28 04:09:04;;;;;;;2.73;2.07;;;;;;;18.60;53.84;99021.56;5135350;27;42714;-76
2023/06/28 04:11:33;;;;;;;3.83;1.97;;;;;;;18.66;53.68;99033.56;5117168;27;42653;-74
2023/06/28 04:14:01;;;;;;;2.20;1.60;;;;;;;18.67;53.74;99035.22;5135302;27;40704;-75
2023/06/28 04:16:28;;;;;;;2.10;1.90;;;;;;;18.69;53.82;99038.63;5117759;27;41712;-74
2023/06/28 04:18:56;;;;;;;2.93;1.90;;;;;;;18.72;53.57;99043.72;5135180;27;42713;-75
2023/06/28 04:21:24;;;;;;;2.33;1.70;;;;;;;18.75;53.39;99050.63;5134738;27;43047;-75
2023/06/28 04:23:51;;;;;;;3.03;1.97;;;;;;;18.77;53.58;99040.59;5134951;27;40084;-76
2023/06/28 04:26:19;;;;;;;1.90;1.67;;;;;;;18.85;53.38;99048.78;5153627;27;41736;-75
2023/06/28 04:28:49;;;;;;;1.73;1.60;;;;;;;18.90;53.56;99047.38;5153455;27;43689;-74
2023/06/28 04:31:17;;;;;;;2.63;2.13;;;;;;;18.88;53.61;99038.63;5117537;27;42040;-75
2023/06/28 04:33:45;;;;;;;2.93;1.73;;;;;;;19.00;53.68;99048.19;5134829;27;39034;-74
2023/06/28 04:36:13;;;;;;;2.10;1.90;;;;;;;19.07;53.53;99045.75;5152920;27;42380;-75
2023/06/28 04:38:41;;;;;;;3.10;2.03;;;;;;;19.15;53.46;99050.44;5117352;27;42868;-75
2023/06/28 04:41:08;;;;;;;2.50;1.83;;;;;;;19.23;53.16;99054.06;5134935;27;42942;-74
2023/06/28 04:43:43;;;;;;;3.73;1.97;;;;;;;19.28;52.82;99048.28;5135640;27;38863;-75
2023/06/28 04:46:12;;;;;;;2.47;1.80;;;;;;;19.36;53.03;99049.22;5132740;27;41702;-77
2023/06/28 04:48:40;;;;;;;4.23;2.20;;;;;;;19.44;52.56;99053.84;5153631;27;43712;-74
2023/06/28 04:51:08;;;;;;;3.17;1.80;;;;;;;19.52;52.81;99047.78;5135443;27;43243;-74
2023/06/28 04:53:35;;;;;;;2.93;1.90;;;;;;;19.64;52.75;99042.09;5154082;27;39885;-76
2023/06/28 04:56:04;;;;;;;3.40;2.30;;;;;;;19.68;53.12;99031.84;5135530;27;41614;-76
2023/06/28 04:58:33;;;;;;;1.87;1.73;;;;;;;19.82;53.04;99039.44;5135438;27;43527;-76
2023/06/28 05:01:07;;;;;;;3.23;2.00;;;;;;;19.90;53.41;99041.38;5117454;27;41329;-76
2023/06/28 05:03:38;;;;;;;3.60;2.30;;;;;;;19.93;53.14;99035.69;5117843;27;39938;-76
2023/06/28 05:06:07;;;;;;;4.30;2.70;;;;;;;20.03;52.73;99036.47;5118303;27;42169;-75
2023/06/28 05:08:35;;;;;;;2.67;2.00;;;;;;;20.06;52.74;99044.25;5135083;27;42819;-75
2023/06/28 05:11:03;;;;;;;2.67;2.30;;;;;;;20.11;52.74;99054.56;5134084;27;42316;-76
2023/06/28 05:13:31;;;;;;;3.13;1.90;;;;;;;20.13;53.03;99048.03;5133793;27;40047;-76
2023/06/28 05:15:59;;;;;;;2.27;2.00;;;;;;;20.11;52.73;99050.03;5116972;27;40836;-76
2023/06/28 05:18:26;;;;;;;4.13;2.30;;;;;;;20.12;52.91;99046.34;5134466;27;42702;-74
2023/06/28 05:20:56;;;;;;;3.10;2.23;;;;;;;20.11;53.08;99044.63;5134106;27;43121;-73
2023/06/28 05:23:23;;;;;;;3.30;2.20;;;;;;;20.11;52.99;99050.03;5134792;27;39898;-74
2023/06/28 05:25:51;;;;;;;4.17;2.37;;;;;;;20.18;52.72;99053.78;5134832;27;41564;-75
2023/06/28 05:28:19;;;;;;;4.17;2.03;;;;;;;20.29;52.59;99050.88;5134850;27;42348;-74
2023/06/28 05:30:47;;;;;;;3.90;2.10;;;;;;;20.43;51.94;99061.13;5133049;27;43077;-82
2023/06/28 05:33:14;;;;;;;3.70;2.20;;;;;;;20.53;52.14;99058.38;5116413;27;41001;-85
2023/06/28 05:35:42;;;;;;;3.30;2.20;;;;;;;20.70;51.71;99057.53;5134896;27;41726;-77
2023/06/28 05:38:12;;;;;;;4.80;2.67;;;;;;;20.76;51.72;99053.38;5134487;27;42742;-79
2023/06/28 05:40:39;;;;;;;5.07;2.67;;;;;;;20.98;51.14;99060.97;5117202;27;41336;-82
2023/06/28 05:43:07;;;;;;;2.30;1.97;;;;;;;21.05;50.56;99059.31;5135047;27;40602;-83
2023/06/28 05:45:35;;;;;;;2.33;1.83;;;;;;;21.17;50.40;99054.50;5117588;27;40819;-83
2023/06/28 05:48:02;;;;;;;3.53;2.40;;;;;;;21.38;50.44;99052.34;5135145;27;43603;-83
2023/06/28 05:50:30;;;;;;;6.03;2.03;;;;;;;21.67;49.98;99060.06;5115618;27;41978;-84
2023/06/28 05:52:58;;;;;;;3.77;2.30;;;;;;;21.85;49.02;99066.22;5152155;27;41655;-83
2023/06/28 05:55:27;;;;;;;2.73;2.00;;;;;;;22.18;48.29;99077.13;5117037;27;40959;-87
2023/06/28 05:57:55;;;;;;;4.03;2.17;;;;;;;22.40;47.25;99087.31;5116901;27;42253;-81
2023/06/28 06:00:23;;;;;;;2.57;1.97;;;;;;;22.54;46.72;99072.31;5117269;27;41319;-83
2023/06/28 06:02:50;;;;;;;3.93;2.13;;;;;;;22.85;46.78;99091.47;5116936;27;39837;-79
2023/06/28 06:05:18;;;;;;;5.20;2.37;;;;;;;23.09;45.69;99091.47;5152248;27;42524;-81
2023/06/28 06:07:46;;;;;;;2.47;1.93;;;;;;;23.35;44.51;99098.53;5116864;27;42883;-85
2023/06/28 06:10:15;;;;;;;2.90;2.20;;;;;;;23.67;43.97;99100.34;5133906;27;42452;-83
2023/06/28 06:12:45;;;;;;;3.93;1.67;;;;;;;24.02;44.08;99101.75;5116683;27;39293;-84
2023/06/28 06:15:13;;;;;;;2.33;2.03;;;;;;;24.40;42.75;99108.19;5137652;27;41827;-84
2023/06/28 06:17:41;;;;;;;4.60;1.93;;;;;;;24.43;42.48;99078.91;5121081;27;42807;-82
2023/06/28 06:20:09;;;;;;;2.60;1.90;;;;;;;24.48;41.70;99111.69;5138498;27;42405;-80
2023/06/28 06:22:37;;;;;;;3.33;2.27;;;;;;;24.31;42.11;99119.09;5120817;27;40386;-77
2023/06/28 06:25:05;;;;;;;3.93;2.20;;;;;;;24.12;42.38;99096.97;5137749;27;41821;-78
2023/06/28 06:27:33;;;;;;;3.10;2.20;;;;;;;24.19;42.81;99104.22;5120743;27;41449;-79
2023/06/28 06:30:03;;;;;;;2.83;1.80;;;;;;;24.22;42.92;99111.16;5120905;27;41359;-78
2023/06/28 06:32:31;;;;;;;3.57;1.93;;;;;;;24.26;42.10;99118.75;5121075;27;38991;-75
2023/06/28 06:35:00;;;;;;;5.33;2.37;;;;;;;24.34;42.76;99097.06;5139044;27;42021;-80
2023/06/28 06:37:28;;;;;;;3.40;1.57;;;;;;;24.45;42.22;99087.69;5120848;27;41615;-78
2023/06/28 06:39:56;;;;;;;3.97;1.83;;;;;;;24.64;42.15;99119.72;5156237;27;43018;-79
2023/06/28 06:42:24;;;;;;;3.80;1.90;;;;;;;24.68;42.29;99117.50;5138061;27;41013;-79
2023/06/28 06:44:52;;;;;;;2.23;1.67;;;;;;;24.96;41.77;99126.00;5136955;27;41669;-80
2023/06/28 06:47:22;;;;;;;2.63;2.07;;;;;;;25.24;41.35;99113.53;5136614;27;42657;-84
2023/06/28 06:49:49;;;;;;;7.17;2.60;;;;;;;25.67;40.40;99138.25;5141693;27;43172;-76
2023/06/28 06:52:17;;;;;;;7.07;2.10;;;;;;;25.92;40.20;99139.69;5119368;27;39890;-81
2023/06/28 06:54:45;;;;;;;5.33;2.10;;;;;;;26.04;39.19;99140.88;5119631;27;40776;-80
2023/06/28 06:57:14;;;;;;;2.93;2.07;;;;;;;26.18;38.94;99135.66;5136409;27;42864;-80
2023/06/28 06:59:42;;;;;;;2.43;1.83;;;;;;;26.33;38.78;99134.63;5118891;27;42251;-80
2023/06/28 07:02:09;;;;;;;3.30;2.10;;;;;;;26.51;38.81;99136.91;5136228;27;39013;-80
2023/06/28 07:04:39;;;;;;;3.90;1.90;;;;;;;26.60;38.43;99146.63;5154514;27;42645;-81
2023/06/28 07:07:06;;;;;;;5.73;2.00;;;;;;;26.67;38.49;99147.56;5118779;27;41840;-77
2023/06/28 07:09:34;;;;;;;2.63;1.73;;;;;;;26.83;38.59;99131.00;5135464;27;41133;-78
2023/06/28 07:12:02;;;;;;;5.90;2.30;;;;;;;27.04;37.00;99148.41;5135521;27;38940;-78
2023/06/28 07:14:29;;;;;;;4.57;2.20;;;;;;;27.22;37.26;99143.34;5151145;27;41727;-77
2023/06/28 07:16:57;;;;;;;2.77;1.80;;;;;;;27.25;37.23;99140.22;5136000;27;42977;-76
2023/06/28 07:19:24;;;;;;;2.27;1.73;;;;;;;27.43;37.00;99143.34;5118690;27;42032;-78
2023/06/28 07:21:54;;;;;;;5.27;2.10;;;;;;;27.54;35.72;99156.41;5136551;27;40923;-81
2023/06/28 07:24:21;;;;;;;2.17;1.67;;;;;;;27.54;36.22;99150.97;5137111;27;40688;-87
2023/06/28 07:26:49;;;;;;;3.60;1.77;;;;;;;27.57;36.33;99132.59;5137344;27;42531;-80
2023/06/28 07:29:17;;;;;;;2.93;2.00;;;;;;;27.78;37.08;99154.31;5119384;27;41540;-78
2023/06/28 07:31:44;;;;;;;4.83;1.90;;;;;;;28.05;36.00;99161.59;5118615;27;40902;-79
2023/06/28 07:34:14;;;;;;;2.90;1.80;;;;;;;28.24;36.18;99147.28;5119570;27;40703;-83
2023/06/28 07:36:42;;;;;;;3.73;1.90;;;;;;;28.44;35.72;99151.97;5119981;27;41740;-81
2023/06/28 07:39:11;;;;;;;2.83;1.67;;;;;;;28.40;35.68;99156.16;5120092;27;42366;-81
2023/06/28 07:41:39;;;;;;;3.23;1.80;;;;;;;28.35;34.75;99153.19;5136934;27;40275;-80
2023/06/28 07:44:06;;;;;;;2.97;1.80;;;;;;;28.31;35.11;99160.09;5119484;27;40848;-79
2023/06/28 07:46:34;;;;;;;3.10;1.70;;;;;;;28.31;34.93;99169.13;5120296;27;42108;-86
2023/06/28 07:49:02;;;;;;;3.97;1.73;;;;;;;28.43;34.68;99161.19;5137607;27;42425;-84
2023/06/28 07:51:30;;;;;;;3.40;1.70;;;;;;;28.56;34.73;99145.72;5118038;27;39545;-85
2023/06/28 07:53:57;;;;;;;6.00;1.90;;;;;;;28.79;33.31;99153.59;5135760;27;41707;-85
2023/06/28 07:56:27;;;;;;;2.80;1.53;;;;;;;29.43;32.88;99168.63;5119054;27;41628;-81
2023/06/28 07:58:54;;;;;;;3.13;1.60;;;;;;;29.70;32.03;99172.19;5136136;27;41081;-82
2023/06/28 08:01:22;;;;;;;2.93;1.57;;;;;;;29.72;31.94;99153.72;5118422;27;39977;-83
2023/06/28 08:03:50;;;;;;;2.70;1.63;;;;;;;29.78;30.82;99180.19;5156202;27;41708;-80
2023/06/28 08:06:17;;;;;;;4.13;1.90;;;;;;;29.74;30.84;99182.47;5153779;27;42483;-81
2023/06/28 08:08:46;;;;;;;2.93;1.57;;;;;;;29.80;31.22;99169.88;5154141;27;43495;-77
2023/06/28 08:11:14;;;;;;;3.40;1.80;;;;;;;30.10;30.58;99184.78;5135455;27;39928;-80
2023/06/28 08:13:43;;;;;;;3.57;1.83;;;;;;;30.23;30.43;99182.00;5117470;27;41135;-80
2023/06/28 08:16:12;;;;;;;2.60;1.73;;;;;;;30.24;30.35;99180.13;5117484;27;42738;-78
2023/06/28 08:18:39;;;;;;;2.13;1.50;;;;;;;30.04;30.29;99184.81;5134804;27;42262;-77
2023/06/28 08:21:07;;;;;;;2.47;1.40;;;;;;;29.79;29.66;99188.16;5135345;27;41339;-79
2023/06/28 08:23:35;;;;;;;4.27;1.80;;;;;;;29.48;30.27;99172.41;5153303;27;42738;-77
2023/06/28 08:26:02;;;;;;;2.67;1.50;;;;;;;29.38;29.93;99177.44;5116544;27;42919;-80
2023/06/28 08:28:30;;;;;;;4.27;1.60;;;;;;;29.14;31.19;99162.50;5135264;27;42159;-85
2023/06/28 08:31:00;;;;;;;4.03;1.63;;;;;;;29.06;31.35;99151.75;5114779;27;40114;-82
2023/06/28 08:33:28;;;;;;;4.23;1.77;;;;;;;29.09;32.10;99166.88;5114538;27;42721;-83
2023/06/28 08:35:56;;;;;;;3.27;1.53;;;;;;;29.08;32.19;99159.72;5148853;27;43565;-79
2023/06/28 08:38:23;;;;;;;3.23;1.40;;;;;;;29.17;31.81;99162.09;5118158;27;42624;-81
2023/06/28 08:40:52;;;;;;;1.70;1.10;;;;;;;29.32;32.06;99159.13;5135327;27;39034;-80
2023/06/28 08:43:22;;;;;;;4.47;1.77;;;;;;;29.49;31.23;99145.97;5153262;27;41773;-87
2023/06/28 08:45:50;;;;;;;2.20;1.40;;;;;;;29.97;31.12;99160.22;5118077;27;41399;-85
2023/06/28 08:48:20;;;;;;;2.50;1.30;;;;;;;30.10;29.83;99179.31;5135232;27;43249;-80
2023/06/28 08:50:49;;;;;;;4.80;1.50;;;;;;;30.17;29.77;99180.13;5134872;27;40762;-83
2023/06/28 08:53:19;;;;;;;3.63;1.70;;;;;;;30.41;29.36;99183.22;5135353;27;42544;-82
2023/06/28 08:55:49;;;;;;;3.20;1.50;;;;;;;30.36;29.09;99172.94;5134681;27;43396;-79
2023/06/28 08:58:16;;;;;;;1.70;1.27;;;;;;;30.53;29.21;99176.91;5134702;27;43769;-81
2023/06/28 09:00:45;;;;;;;1.93;1.50;;;;;;;30.65;29.09;99174.34;5118029;27;39262;-83
2023/06/28 09:03:15;;;;;;;3.60;1.50;;;;;;;30.64;29.21;99172.66;5134953;27;42287;-82
2023/06/28 09:05:45;;;;;;;2.40;1.60;;;;;;;30.77;28.92;99178.06;5134287;27;43392;-78
2023/06/28 09:08:13;;;;;;;3.33;1.27;;;;;;;31.10;28.78;99172.44;5117099;27;41374;-83
2023/06/28 09:10:41;;;;;;;2.47;1.40;;;;;;;31.15;27.89;99185.47;5134168;27;40951;-79
2023/06/28 09:13:10;;;;;;;2.50;1.37;;;;;;;31.15;27.98;99180.81;5134228;27;41530;-80
2023/06/28 09:15:38;;;;;;;4.30;1.80;;;;;;;31.08;27.25;99202.72;5153192;27;42594;-81
2023/06/28 09:18:05;;;;;;;2.40;1.50;;;;;;;30.80;28.31;99185.81;5135297;27;41510;-79
2023/06/28 09:20:36;;;;;;;2.57;1.33;;;;;;;30.51;28.59;99183.63;5135397;27;41096;-79
2023/06/28 09:23:05;;;;;;;2.17;1.27;;;;;;;30.16;28.43;99183.09;5135179;27;41788;-83
2023/06/28 09:25:33;;;;;;;2.80;1.53;;;;;;;29.91;28.97;99182.91;5135181;27;42874;-81
2023/06/28 09:28:01;;;;;;;2.43;1.50;;;;;;;29.61;29.37;99177.03;5154051;27;43164;-83
2023/06/28 09:30:52;;;;;;;2.97;1.40;;;;;;;29.58;29.17;99178.28;5135533;27;39987;-78
2023/06/28 09:33:21;;;;;;;2.40;1.40;;;;;;;31.16;28.21;99179.75;5135733;27;40705;-79
2023/06/28 09:35:53;;;;;;;2.73;1.33;;;;;;;32.05;25.56;99192.31;5134998;27;42667;-81
2023/06/28 09:38:22;;;;;;;3.60;1.80;;;;;;;32.85;24.53;99195.88;5153280;27;42974;-82
2023/06/28 09:40:54;;;;;;;3.17;1.20;;;;;;;33.87;23.78;99211.28;5135235;27;41009;-83
2023/06/28 09:43:22;;;;;;;1.57;1.10;;;;;;;35.23;22.76;99209.84;5153298;27;41938;-76
2023/06/28 09:45:50;;;;;;;2.57;1.40;;;;;;;36.79;21.34;99226.44;5134883;27;43575;-83
2023/06/28 09:48:23;;;;;;;2.07;1.33;;;;;;;38.24;19.71;99223.75;5136727;27;42337;-85
2023/06/28 09:50:50;;;;;;;3.90;1.47;;;;;;;38.65;18.51;99217.38;5135687;27;40012;-84
2023/06/28 09:53:21;;;;;;;4.32;1.58;;;;;;;39.10;18.54;99235.28;5154628;27;41886;-81
2023/06/28 09:55:51;;;;;;;2.75;1.60;;;;;;;39.44;18.39;99233.72;5137963;27;41809;-79
2023/06/28 09:58:20;;;;;;;2.03;1.50;;;;;;;38.85;19.15;99215.78;5120030;27;41469;-78
2023/06/28 10:00:50;;;;;;;4.22;1.73;;;;;;;39.61;19.31;99210.44;5156544;27;40939;-78
2023/06/28 10:03:19;;;;;;;3.55;1.90;;;;;;;40.16;18.61;99204.06;5136811;27;41716;-79
2023/06/28 10:05:47;;;;;;;1.85;1.38;;;;;;;40.47;18.55;99210.41;5155302;27;43712;-80
2023/06/28 10:08:16;;;;;;;2.50;1.40;;;;;;;39.26;18.91;99214.81;5119833;27;41050;-81
2023/06/28 10:10:45;;;;;;;1.50;1.20;;;;;;;37.74;19.67;99205.66;5156054;27;39729;-78
2023/06/28 10:13:19;;;;;;;6.63;1.53;;;;;;;36.41;20.87;99199.69;5136789;27;42431;-78
2023/06/28 10:15:51;;;;;;;2.30;1.50;;;;;;;35.34;22.16;99193.53;5134480;27;42786;-77
2023/06/28 10:18:20;;;;;;;2.63;1.40;;;;;;;34.56;22.91;99190.31;5136766;27;42475;-78
2023/06/28 10:20:48;;;;;;;3.23;1.27;;;;;;;33.99;23.90;99180.19;5137421;27;40874;-79
2023/06/28 10:23:17;;;;;;;2.97;1.70;;;;;;;33.64;24.51;99164.47;5155935;27;41779;-78
2023/06/28 10:25:46;;;;;;;4.27;1.67;;;;;;;34.17;23.69;99169.06;5121081;27;41641;-77
2023/06/28 10:28:15;;;;;;;3.23;2.03;;;;;;;34.37;23.43;99177.78;5133852;27;42491;-83
2023/06/28 10:30:44;;;;;;;1.90;1.20;;;;;;;34.25;23.18;99171.44;5137537;27;41064;-85
2023/06/28 10:33:14;;;;;;;2.20;1.57;;;;;;;34.00;22.13;99168.13;5137768;27;40625;-85
2023/06/28 10:35:45;;;;;;;2.30;1.40;;;;;;;33.69;22.66;99178.34;5121818;27;41747;-92
2023/06/28 10:38:13;;;;;;;7.90;1.80;;;;;;;33.34;23.16;99174.72;5121449;27;40890;-85
2023/06/28 10:40:41;;;;;;;3.00;1.53;;;;;;;33.27;24.33;99173.97;5122075;27;38961;-86
2023/06/28 10:43:23;;;;;;;2.57;1.60;;;;;;;33.07;24.50;99155.88;5121093;27;40659;-86
2023/06/28 10:45:52;;;;;;;3.37;1.80;;;;;;;32.85;24.98;99154.72;5138199;27;42231;-86
2023/06/28 10:48:21;;;;;;;2.17;1.40;;;;;;;32.73;24.69;99170.28;5137840;27;41550;-84
2023/06/28 10:50:50;;;;;;;3.07;1.60;;;;;;;32.53;25.21;99167.75;5138295;27;40109;-83
2023/06/28 10:53:22;;;;;;;2.07;1.10;;;;;;;32.36;25.25;99172.19;5135432;27;41465;-85
2023/06/28 10:56:11;;;;;;;4.40;1.70;;;;;;;32.71;25.49;99166.91;5136759;27;41740;-81
2023/06/28 10:58:41;;;;;;;4.00;1.53;;;;;;;32.92;25.45;99149.13;5119622;27;42237;-89
2023/06/28 11:01:23;;;;;;;2.80;1.70;;;;;;;33.22;25.51;99162.84;5119765;27;39257;-82
2023/06/28 11:03:53;;;;;;;2.57;1.50;;;;;;;33.34;25.17;99158.25;5098459;27;41164;-83
2023/06/28 11:06:29;;;;;;;5.83;1.63;;;;;;;33.62;24.47;99161.16;5098836;27;41814;-83
2023/06/28 11:09:13;;;;;;;2.43;1.20;;;;;;;33.58;25.14;99113.25;5140014;27;43083;-86
2023/06/28 11:11:43;;;;;;;2.17;1.43;;;;;;;34.20;24.43;99147.41;5119960;27;39766;-81
2023/06/28 11:14:22;;;;;;;4.20;1.30;;;;;;;34.17;23.97;99155.31;5132959;27;42541;-82
2023/06/28 11:16:50;;;;;;;3.07;1.70;;;;;;;33.94;24.15;99169.06;5119622;27;42574;-82
2023/06/28 11:19:22;;;;;;;1.67;1.50;;;;;;;33.69;23.96;99155.53;5136158;27;41030;-90
2023/06/28 11:21:57;;;;;;;2.77;1.80;;;;;;;33.49;24.43;99144.91;5119617;27;39290;-81
2023/06/28 11:24:46;;;;;;;2.43;1.50;;;;;;;33.89;25.35;99156.88;5151636;27;41700;-85
2023/06/28 11:27:14;;;;;;;2.83;1.70;;;;;;;34.26;25.23;99142.88;5130984;27;43472;-84
2023/06/28 11:29:58;;;;;;;2.27;1.40;;;;;;;34.67;23.60;99171.25;5155685;27;42611;-83
2023/06/28 11:32:28;;;;;;;3.23;1.53;;;;;;;35.03;23.93;99162.63;5119891;27;40024;-80
2023/06/28 11:34:58;;;;;;;1.77;1.40;;;;;;;35.31;23.88;99148.03;5136653;27;41730;-81
2023/06/28 11:37:26;;;;;;;2.80;1.60;;;;;;;35.36;24.03;99111.50;5155509;27;42812;-78
2023/06/28 11:39:54;;;;;;;2.93;1.50;;;;;;;35.70;23.58;99151.72;5155340;27;42056;-82
2023/06/28 11:42:22;;;;;;;3.00;1.70;;;;;;;35.73;23.67;99140.19;5137168;27;40160;-82